createdAt,value
2023-02-28T00:00:03.130Z,100633.84
2023-02-28T00:02:31.652Z,100633.84
2023-02-28T00:04:58.402Z,100636.84
2023-02-28T00:07:26.520Z,100637.69
2023-02-28T00:09:53.355Z,100634.91
2023-02-28T00:12:20.431Z,100639.97
2023-02-28T00:14:47.237Z,100629.50
2023-02-28T00:17:14.046Z,100631.19
2023-02-28T00:19:41.028Z,100634.56
2023-02-28T00:22:07.857Z,100632.75
2023-02-28T00:24:36.217Z,100631.31
2023-02-28T00:27:03.368Z,100626.59
2023-02-28T00:29:30.114Z,100632.41
2023-02-28T00:31:56.970Z,100630.22
2023-02-28T00:34:23.947Z,100627.09
2023-02-28T00:36:50.738Z,100627.34
2023-02-28T00:39:18.109Z,100634.47
2023-02-28T00:41:46.282Z,100636.97
2023-02-28T00:44:14.557Z,100628.41
2023-02-28T00:46:41.382Z,100626.47
2023-02-28T00:49:08.178Z,100631.19
2023-02-28T00:51:36.260Z,100631.69
2023-02-28T00:54:03.196Z,100623.59
2023-02-28T00:56:29.946Z,100623.72
2023-02-28T00:58:58.610Z,100622.75
2023-02-28T01:01:25.525Z,100630.50
2023-02-28T01:03:52.362Z,100624.13
2023-02-28T01:06:19.374Z,100624.00
2023-02-28T01:08:46.293Z,100624.00
2023-02-28T01:11:19.045Z,100628.47
2023-02-28T01:13:49.069Z,100616.75
2023-02-28T01:16:17.533Z,100621.09
2023-02-28T01:18:46.104Z,100618.34
2023-02-28T01:21:16.077Z,100623.16
2023-02-28T01:23:44.180Z,100619.56
2023-02-28T01:26:14.172Z,100618.94
2023-02-28T01:28:41.923Z,100619.69
2023-02-28T01:31:13.464Z,100617.84
2023-02-28T01:33:42.286Z,100624.38
2023-02-28T01:36:13.972Z,100610.25
2023-02-28T01:38:41.535Z,100614.13
2023-02-28T01:41:15.165Z,100619.91
2023-02-28T01:44:00.068Z,100620.53
2023-02-28T01:46:27.157Z,100614.63
2023-02-28T01:49:06.220Z,100615.59
2023-02-28T01:51:41.943Z,100617.63
2023-02-28T01:54:15.930Z,100602.44
2023-02-28T01:56:50.081Z,100616.53
2023-02-28T01:59:25.579Z,100604.72
2023-02-28T02:01:53.921Z,100611.59
2023-02-28T02:04:26.695Z,100609.94
2023-02-28T02:06:53.900Z,100603.28
2023-02-28T02:09:20.733Z,100611.00
2023-02-28T02:11:48.333Z,100600.97
2023-02-28T02:14:49.177Z,100590.63
2023-02-28T02:17:30.018Z,100589.66
2023-02-28T02:20:45.878Z,100596.88
2023-02-28T02:23:52.583Z,100597.00
2023-02-28T02:26:59.278Z,100591.13
2023-02-28T02:30:37.687Z,100592.69
2023-02-28T02:33:29.739Z,100590.50
2023-02-28T02:36:08.138Z,100592.19
2023-02-28T02:38:45.444Z,100591.38
2023-02-28T02:41:24.617Z,100576.88
2023-02-28T02:43:59.236Z,100583.50
2023-02-28T02:46:34.014Z,100589.56
2023-02-28T02:49:06.240Z,100582.31
2023-02-28T02:51:38.663Z,100583.75
2023-02-28T02:54:15.519Z,100582.06
2023-02-28T02:56:45.983Z,100581.59
2023-02-28T02:59:19.793Z,100584.47
2023-02-28T03:01:46.858Z,100580.16
2023-02-28T03:04:20.566Z,100588.59
2023-02-28T03:06:51.442Z,100585.44
2023-02-28T03:09:18.347Z,100583.84
2023-02-28T03:11:46.122Z,100580.38
2023-02-28T03:14:38.926Z,100572.75
2023-02-28T03:17:38.895Z,100569.41
2023-02-28T03:20:22.255Z,100580.72
2023-02-28T03:23:08.907Z,100572.31
2023-02-28T03:25:53.044Z,100576.03
2023-02-28T03:28:32.742Z,100570.22
2023-02-28T03:31:11.281Z,100573.25
2023-02-28T03:33:45.167Z,100573.84
2023-02-28T03:36:19.160Z,100573.63
2023-02-28T03:38:55.286Z,100569.41
2023-02-28T03:41:26.617Z,100574.31
2023-02-28T03:43:59.144Z,100574.06
2023-02-28T03:46:32.576Z,100569.97
2023-02-28T03:49:12.064Z,100580.34
2023-02-28T03:51:44.344Z,100572.88
2023-02-28T03:54:19.161Z,100578.31
2023-02-28T03:56:54.718Z,100584.56
2023-02-28T03:59:29.568Z,100583.38
2023-02-28T04:01:58.659Z,100598.56
2023-02-28T04:04:28.188Z,100584.56
2023-02-28T04:07:04.526Z,100589.03
2023-02-28T04:09:33.285Z,100595.66
2023-02-28T04:12:00.358Z,100602.19
2023-02-28T04:14:27.827Z,100594.84
2023-02-28T04:16:54.900Z,100592.66
2023-02-28T04:19:21.786Z,100592.19
2023-02-28T04:21:51.266Z,100603.78
2023-02-28T04:24:21.788Z,100595.44
2023-02-28T04:26:53.234Z,100604.25
2023-02-28T04:29:22.900Z,100599.50
2023-02-28T04:31:50.711Z,100596.03
2023-02-28T04:34:17.695Z,100591.41
2023-02-28T04:36:44.455Z,100602.16
2023-02-28T04:39:11.253Z,100597.63
2023-02-28T04:41:38.661Z,100598.59
2023-02-28T04:44:06.915Z,100601.47
2023-02-28T04:46:33.855Z,100598.47
2023-02-28T04:49:00.747Z,100594.13
2023-02-28T04:51:28.068Z,100598.69
2023-02-28T04:53:55.979Z,100587.47
2023-02-28T04:56:24.315Z,100595.19
2023-02-28T04:58:51.360Z,100598.69
2023-02-28T05:01:26.627Z,100594.19
2023-02-28T05:03:55.804Z,100595.66
2023-02-28T05:06:25.073Z,100598.41
2023-02-28T05:08:52.950Z,100596.50
2023-02-28T05:11:24.032Z,100596.72
2023-02-28T05:13:52.934Z,100599.88
2023-02-28T05:16:22.126Z,100599.75
2023-02-28T05:18:49.040Z,100596.72
2023-02-28T05:21:29.610Z,100597.91
2023-02-28T05:23:58.628Z,100601.31
2023-02-28T05:26:26.850Z,100600.91
2023-02-28T05:28:53.796Z,100597.56
2023-02-28T05:31:22.298Z,100605.66
2023-02-28T05:33:49.235Z,100598.44
2023-02-28T05:36:16.128Z,100607.59
2023-02-28T05:38:42.922Z,100603.72
2023-02-28T05:41:11.546Z,100609.75
2023-02-28T05:43:39.013Z,100615.91
2023-02-28T05:46:07.323Z,100610.00
2023-02-28T05:48:37.866Z,100608.06
2023-02-28T05:51:05.847Z,100608.91
2023-02-28T05:53:33.804Z,100608.31
2023-02-28T05:56:00.747Z,100611.44
2023-02-28T05:58:28.676Z,100618.94
2023-02-28T06:00:55.626Z,100614.13
2023-02-28T06:03:22.526Z,100613.63
2023-02-28T06:05:50.906Z,100608.31
2023-02-28T06:08:17.674Z,100609.53
2023-02-28T06:10:44.454Z,100618.81
2023-02-28T06:13:11.432Z,100614.56
2023-02-28T06:15:38.297Z,100614.56
2023-02-28T06:18:05.591Z,100623.06
2023-02-28T06:20:32.389Z,100620.03
2023-02-28T06:23:01.767Z,100629.94
2023-02-28T06:25:29.323Z,100626.41
2023-02-28T06:27:56.850Z,100627.50
2023-02-28T06:30:23.822Z,100628.22
2023-02-28T06:32:50.757Z,100633.19
2023-02-28T06:35:17.840Z,100634.78
2023-02-28T06:37:44.716Z,100631.72
2023-02-28T06:40:14.135Z,100648.97
2023-02-28T06:42:41.139Z,100648.03
2023-02-28T06:45:09.639Z,100643.28
2023-02-28T06:47:37.249Z,100652.34
2023-02-28T06:50:06.205Z,100647.78
2023-02-28T06:52:33.084Z,100659.13
2023-02-28T06:55:00.727Z,100660.06
2023-02-28T06:57:32.463Z,100660.44
2023-02-28T06:59:59.756Z,100665.75
2023-02-28T07:02:27.072Z,100665.50
2023-02-28T07:04:54.293Z,100667.41
2023-02-28T07:07:21.787Z,100671.25
2023-02-28T07:09:48.716Z,100681.16
2023-02-28T07:12:15.772Z,100673.06
2023-02-28T07:14:43.924Z,100680.66
2023-02-28T07:17:11.765Z,100674.00
2023-02-28T07:19:39.013Z,100678.25
2023-02-28T07:22:06.378Z,100671.13
2023-02-28T07:24:33.387Z,100664.09
2023-02-28T07:27:00.550Z,100677.47
2023-02-28T07:29:28.000Z,100678.84
2023-02-28T07:31:56.530Z,100669.91
2023-02-28T07:34:23.567Z,100674.91
2023-02-28T07:36:54.052Z,100674.28
2023-02-28T07:39:21.651Z,100677.66
2023-02-28T07:41:48.935Z,100678.66
2023-02-28T07:44:16.202Z,100678.66
2023-02-28T07:46:43.343Z,100678.97
2023-02-28T07:49:11.662Z,100674.91
2023-02-28T07:51:44.139Z,100679.22
2023-02-28T07:54:11.075Z,100677.34
2023-02-28T07:56:37.833Z,100680.06
2023-02-28T07:59:05.077Z,100686.19
2023-02-28T08:01:32.204Z,100679.78
2023-02-28T08:03:59.297Z,100673.47
2023-02-28T08:06:27.692Z,100681.25
2023-02-28T08:08:54.927Z,100677.91
2023-02-28T08:11:21.780Z,100681.97
2023-02-28T08:13:48.615Z,100680.06
2023-02-28T08:16:15.975Z,100683.78
2023-02-28T08:18:42.776Z,100678.41
2023-02-28T08:21:11.286Z,100686.94
2023-02-28T08:23:40.065Z,100685.22
2023-02-28T08:26:07.393Z,100689.78
2023-02-28T08:28:34.474Z,100681.06
2023-02-28T08:31:01.816Z,100685.66
2023-02-28T08:33:28.955Z,100665.69
2023-02-28T08:35:56.243Z,100680.59
2023-02-28T08:38:24.281Z,100673.16
2023-02-28T08:40:59.504Z,100690.63
2023-02-28T08:43:26.492Z,100673.56
2023-02-28T08:45:53.623Z,100677.72
2023-02-28T08:48:20.476Z,100675.19
2023-02-28T08:51:06.859Z,100686.00
2023-02-28T08:53:34.914Z,100678.41
2023-02-28T08:56:06.981Z,100679.66
2023-02-28T08:58:34.318Z,100693.81
2023-02-28T09:01:01.759Z,100685.38
2023-02-28T09:03:28.541Z,100685.72
2023-02-28T09:05:57.849Z,100680.09
2023-02-28T09:08:26.324Z,100669.56
2023-02-28T09:10:53.636Z,100673.06
2023-02-28T09:13:22.017Z,100678.81
2023-02-28T09:15:48.801Z,100675.59
2023-02-28T09:18:16.418Z,100676.31
2023-02-28T09:20:44.397Z,100676.19
2023-02-28T09:23:13.343Z,100679.13
2023-02-28T09:25:47.408Z,100672.94
2023-02-28T09:28:14.930Z,100676.44
2023-02-28T09:30:44.827Z,100661.97
2023-02-28T09:33:11.854Z,100673.16
2023-02-28T09:35:38.772Z,100672.53
2023-02-28T09:38:10.578Z,100665.94
2023-02-28T09:40:49.807Z,100668.47
2023-02-28T09:43:31.608Z,100669.94
2023-02-28T09:46:08.061Z,100655.53
2023-02-28T09:48:42.240Z,100669.41
2023-02-28T09:51:31.496Z,100679.63
2023-02-28T09:54:01.889Z,100666.41
2023-02-28T09:56:36.971Z,100687.00
2023-02-28T09:59:14.817Z,100683.72
2023-02-28T10:01:58.151Z,100674.91
2023-02-28T10:04:44.444Z,100683.06
2023-02-28T10:07:46.691Z,100684.47
2023-02-28T10:10:24.974Z,100686.97
2023-02-28T10:12:57.032Z,100689.22
2023-02-28T10:15:30.934Z,100685.03
2023-02-28T10:18:09.335Z,100685.44
2023-02-28T10:20:41.665Z,100686.41
2023-02-28T10:23:18.370Z,100689.91
2023-02-28T10:25:54.857Z,100694.00
2023-02-28T10:28:21.689Z,100690.09
2023-02-28T10:30:51.768Z,100700.56
2023-02-28T10:33:25.387Z,100701.59
2023-02-28T10:35:53.747Z,100699.91
2023-02-28T10:38:24.065Z,100699.00
2023-02-28T10:40:51.952Z,100693.31
2023-02-28T10:43:24.220Z,100685.41
2023-02-28T10:46:00.744Z,100674.66
2023-02-28T10:48:36.815Z,100697.53
2023-02-28T10:51:06.619Z,100679.34
2023-02-28T10:53:57.616Z,100691.00
2023-02-28T10:56:27.769Z,100689.03
2023-02-28T10:58:57.817Z,100694.75
2023-02-28T11:01:36.410Z,100692.97
2023-02-28T11:04:18.549Z,100677.78
2023-02-28T11:06:46.367Z,100680.69
2023-02-28T11:09:25.847Z,100673.69
2023-02-28T11:11:52.975Z,100656.88
2023-02-28T11:14:26.186Z,100661.72
2023-02-28T11:16:55.541Z,100653.97
2023-02-28T11:19:29.477Z,100645.75
2023-02-28T11:22:02.614Z,100657.25
2023-02-28T11:24:36.346Z,100659.09
2023-02-28T11:27:04.093Z,100642.31
2023-02-28T11:29:33.911Z,100640.41
2023-02-28T11:32:13.985Z,100660.38
2023-02-28T11:34:44.764Z,100652.09
2023-02-28T11:37:16.233Z,100657.63
2023-02-28T11:39:44.441Z,100652.38
2023-02-28T11:42:50.767Z,100648.41
2023-02-28T11:45:43.591Z,100650.84
2023-02-28T11:48:22.499Z,100647.78
2023-02-28T11:51:16.199Z,100664.72
2023-02-28T11:54:12.643Z,100650.13
2023-02-28T11:56:45.516Z,100655.09
2023-02-28T11:59:38.850Z,100635.84
2023-02-28T12:02:24.400Z,100630.53
2023-02-28T12:05:20.116Z,100656.59
2023-02-28T12:08:05.048Z,100649.13
2023-02-28T12:10:45.333Z,100645.28
2023-02-28T12:13:25.069Z,100655.47
2023-02-28T12:16:18.554Z,100644.47
2023-02-28T12:19:07.453Z,100646.00
2023-02-28T12:21:58.949Z,100635.06
2023-02-28T12:24:59.750Z,100644.63
2023-02-28T12:27:33.924Z,100637.75
2023-02-28T12:30:14.303Z,100630.63
2023-02-28T12:32:47.868Z,100624.78
2023-02-28T12:35:22.870Z,100638.94
2023-02-28T12:37:59.104Z,100624.78
2023-02-28T12:40:44.448Z,100636.66
2023-02-28T12:43:17.865Z,100625.88
2023-02-28T12:45:51.846Z,100623.09
2023-02-28T12:48:27.204Z,100621.41
2023-02-28T12:50:55.424Z,100610.22
2023-02-28T12:53:34.348Z,100609.31
2023-02-28T12:56:17.910Z,100593.78
2023-02-28T12:58:51.964Z,100617.28
2023-02-28T13:01:46.914Z,100612.25
2023-02-28T13:05:48.034Z,100601.56
2023-02-28T13:09:04.537Z,100618.16
2023-02-28T13:11:41.058Z,100606.00
2023-02-28T13:14:24.145Z,100608.75
2023-02-28T13:17:19.067Z,100601.47
2023-02-28T13:19:58.338Z,100609.34
2023-02-28T13:22:41.430Z,100608.84
2023-02-28T13:25:52.656Z,100605.63
2023-02-28T13:29:29.712Z,100607.25
2023-02-28T13:32:33.896Z,100603.50
2023-02-28T13:35:44.815Z,100604.81
2023-02-28T13:38:39.348Z,100596.19
2023-02-28T13:41:44.415Z,100605.84
2023-02-28T13:44:14.346Z,100607.34
2023-02-28T13:47:24.094Z,100596.69
2023-02-28T13:49:54.006Z,100595.94
2023-02-28T13:52:24.995Z,100582.78
2023-02-28T13:55:25.011Z,100599.84
2023-02-28T13:58:11.412Z,100591.59
2023-02-28T14:01:04.474Z,100593.25
2023-02-28T14:03:56.269Z,100613.22
2023-02-28T14:06:30.537Z,100607.56
2023-02-28T14:09:02.147Z,100600.03
2023-02-28T14:11:34.013Z,100596.66
2023-02-28T14:14:03.269Z,100598.59
2023-02-28T14:16:41.960Z,100600.75
2023-02-28T14:19:15.472Z,100590.81
2023-02-28T14:22:15.732Z,100588.91
2023-02-28T14:25:15.737Z,100592.78
2023-02-28T14:27:57.962Z,100591.09
2023-02-28T14:30:56.314Z,100591.13
2023-02-28T14:33:40.513Z,100606.38
2023-02-28T14:36:18.391Z,100590.97
2023-02-28T14:38:52.190Z,100588.75
2023-02-28T14:41:30.127Z,100591.59
2023-02-28T14:43:59.953Z,100589.56
2023-02-28T14:46:36.816Z,100590.25
2023-02-28T14:49:06.473Z,100590.66
2023-02-28T14:51:33.554Z,100592.31
2023-02-28T14:54:04.627Z,100594.03
2023-02-28T14:56:37.330Z,100613.66
2023-02-28T14:59:06.103Z,100602.41
2023-02-28T15:01:33.023Z,100596.41
2023-02-28T15:04:06.628Z,100600.72
2023-02-28T15:06:34.332Z,100596.50
2023-02-28T15:09:14.581Z,100578.75
2023-02-28T15:11:42.690Z,100595.25
2023-02-28T15:14:19.668Z,100593.09
2023-02-28T15:16:58.974Z,100603.44
2023-02-28T15:19:30.598Z,100610.97
2023-02-28T15:22:04.581Z,100600.72
2023-02-28T15:24:43.676Z,100605.13
2023-02-28T15:27:20.341Z,100600.09
2023-02-28T15:29:51.880Z,100602.47
2023-02-28T15:32:29.811Z,100599.41
2023-02-28T15:34:59.676Z,100610.19
2023-02-28T15:37:34.435Z,100620.59
2023-02-28T15:40:14.950Z,100597.50
2023-02-28T15:42:42.503Z,100597.66
2023-02-28T15:45:35.576Z,100597.66
2023-02-28T15:48:12.451Z,100609.22
2023-02-28T15:53:53.895Z,100593.56
2023-02-28T15:56:56.206Z,100603.59
2023-02-28T15:59:27.256Z,100595.88
2023-02-28T16:02:22.417Z,100594.91
2023-02-28T16:05:20.893Z,100597.19
2023-02-28T16:07:48.435Z,100596.31
2023-02-28T16:10:16.059Z,100600.34
2023-02-28T16:12:44.353Z,100600.50
2023-02-28T16:15:22.663Z,100603.50
2023-02-28T16:17:50.062Z,100606.31
2023-02-28T16:20:19.427Z,100602.81
2023-02-28T16:22:46.240Z,100603.97
2023-02-28T16:25:14.851Z,100602.28
2023-02-28T16:27:49.358Z,100615.84
2023-02-28T16:30:22.719Z,100608.81
2023-02-28T16:32:50.707Z,100616.06
2023-02-28T16:35:19.112Z,100614.69
2023-02-28T16:37:46.526Z,100626.56
2023-02-28T16:40:16.751Z,100619.66
2023-02-28T16:42:47.655Z,100634.22
2023-02-28T16:45:21.894Z,100628.72
2023-02-28T16:47:50.003Z,100630.53
2023-02-28T16:50:20.294Z,100636.03
2023-02-28T16:52:48.046Z,100630.31
2023-02-28T16:55:15.423Z,100639.47
2023-02-28T16:57:46.910Z,100634.75
2023-02-28T17:00:15.085Z,100640.44
2023-02-28T17:02:43.083Z,100641.03
2023-02-28T17:05:12.873Z,100637.66
2023-02-28T17:07:39.961Z,100642.47
2023-02-28T17:10:16.258Z,100653.09
2023-02-28T17:12:44.831Z,100651.72
2023-02-28T17:15:14.001Z,100648.66
2023-02-28T17:17:42.501Z,100658.81
2023-02-28T17:20:14.194Z,100659.56
2023-02-28T17:22:42.158Z,100659.00
2023-02-28T17:25:11.263Z,100660.72
2023-02-28T17:27:38.634Z,100655.97
2023-02-28T17:30:17.739Z,100662.06
2023-02-28T17:32:44.858Z,100674.19
2023-02-28T17:35:13.172Z,100673.94
2023-02-28T17:37:40.782Z,100677.91
2023-02-28T17:40:14.389Z,100670.84
2023-02-28T17:42:41.162Z,100677.63
2023-02-28T17:45:10.919Z,100677.91
2023-02-28T17:47:38.386Z,100679.06
2023-02-28T17:50:06.513Z,100686.22
2023-02-28T17:52:33.341Z,100682.56
2023-02-28T17:55:00.149Z,100687.91
2023-02-28T17:57:27.011Z,100679.50
2023-02-28T17:59:53.847Z,100683.16
2023-02-28T18:02:22.256Z,100684.59
2023-02-28T18:04:49.968Z,100685.44
2023-02-28T18:07:16.837Z,100691.63
2023-02-28T18:09:43.711Z,100689.41
2023-02-28T18:12:10.644Z,100693.88
2023-02-28T18:14:37.468Z,100696.44
2023-02-28T18:17:04.443Z,100692.94
2023-02-28T18:19:32.774Z,100693.38
2023-02-28T18:21:59.559Z,100702.63
2023-02-28T18:24:26.606Z,100693.91
2023-02-28T18:26:53.491Z,100697.00
2023-02-28T18:29:23.680Z,100691.13
2023-02-28T18:31:50.915Z,100692.38
2023-02-28T18:34:18.059Z,100691.28
2023-02-28T18:36:46.335Z,100683.56
2023-02-28T18:39:13.123Z,100691.84
2023-02-28T18:41:40.338Z,100687.63
2023-02-28T18:44:19.106Z,100688.63
2023-02-28T18:46:47.097Z,100689.63
2023-02-28T18:49:13.963Z,100690.59
2023-02-28T18:51:41.292Z,100689.22
2023-02-28T18:54:09.622Z,100693.56
2023-02-28T18:56:36.538Z,100689.50
2023-02-28T18:59:03.651Z,100687.53
2023-02-28T19:01:30.986Z,100684.88
2023-02-28T19:04:00.371Z,100694.28
2023-02-28T19:06:28.294Z,100687.41
2023-02-28T19:08:56.644Z,100694.00
2023-02-28T19:11:26.546Z,100693.00
2023-02-28T19:13:53.489Z,100695.13
2023-02-28T19:16:22.405Z,100692.59
2023-02-28T19:18:49.571Z,100694.28
2023-02-28T19:21:21.156Z,100703.00
2023-02-28T19:23:48.925Z,100693.72
2023-02-28T19:26:18.688Z,100701.31
2023-02-28T19:28:47.456Z,100699.19
2023-02-28T19:31:23.475Z,100695.56
2023-02-28T19:33:51.428Z,100698.19
2023-02-28T19:36:19.194Z,100701.44
2023-02-28T19:38:46.087Z,100702.00
2023-02-28T19:41:16.141Z,100699.75
2023-02-28T19:43:44.844Z,100697.47
2023-02-28T19:46:14.246Z,100698.16
2023-02-28T19:48:41.586Z,100695.91
2023-02-28T19:51:11.574Z,100699.56
2023-02-28T19:53:41.423Z,100693.38
2023-02-28T19:56:09.632Z,100695.78
2023-02-28T19:58:37.909Z,100696.19
2023-02-28T20:01:10.595Z,100700.41
2023-02-28T20:03:38.957Z,100698.84
2023-02-28T20:06:10.325Z,100698.00
2023-02-28T20:08:38.477Z,100701.25
2023-02-28T20:11:08.002Z,100693.22
2023-02-28T20:13:35.778Z,100684.53
2023-02-28T20:16:06.556Z,100700.94
2023-02-28T20:18:33.712Z,100692.94
2023-02-28T20:21:02.091Z,100694.19
2023-02-28T20:23:29.284Z,100688.28
2023-02-28T20:25:59.567Z,100692.22
2023-02-28T20:28:26.969Z,100689.84
2023-02-28T20:30:53.805Z,100686.34
2023-02-28T20:33:20.683Z,100684.66
2023-02-28T20:35:47.659Z,100683.22
2023-02-28T20:38:15.915Z,100682.81
2023-02-28T20:40:43.006Z,100678.34
2023-02-28T20:43:09.861Z,100676.91
2023-02-28T20:45:36.790Z,100685.88
2023-02-28T20:48:03.633Z,100695.16
2023-02-28T20:50:30.517Z,100688.28
2023-02-28T20:52:57.335Z,100691.06
2023-02-28T20:55:25.585Z,100687.41
2023-02-28T20:57:52.343Z,100693.34
2023-02-28T21:00:20.060Z,100702.59
2023-02-28T21:02:47.178Z,100690.13
2023-02-28T21:05:14.204Z,100686.03
2023-02-28T21:07:41.033Z,100696.69
2023-02-28T21:10:09.683Z,100688.09
2023-02-28T21:12:38.940Z,100688.06
2023-02-28T21:15:07.485Z,100683.97
2023-02-28T21:17:34.318Z,100683.63
2023-02-28T21:20:02.210Z,100691.22
2023-02-28T21:22:29.036Z,100687.56
2023-02-28T21:24:55.844Z,100686.22
2023-02-28T21:27:22.641Z,100685.25
2023-02-28T21:29:50.737Z,100683.84
2023-02-28T21:32:17.548Z,100685.53
2023-02-28T21:34:44.792Z,100691.56
2023-02-28T21:37:11.547Z,100686.38
2023-02-28T21:39:38.652Z,100686.50
2023-02-28T21:42:05.547Z,100679.06
2023-02-28T21:44:33.290Z,100682.38
2023-02-28T21:47:01.865Z,100685.56
2023-02-28T21:49:29.556Z,100676.13
2023-02-28T21:51:57.597Z,100682.63
2023-02-28T21:54:24.831Z,100678.16
2023-02-28T21:56:52.013Z,100674.81
2023-02-28T21:59:19.900Z,100677.31
2023-02-28T22:01:49.449Z,100677.91
2023-02-28T22:04:18.885Z,100680.88
2023-02-28T22:06:45.647Z,100682.78
2023-02-28T22:09:12.406Z,100681.47
2023-02-28T22:11:39.705Z,100689.66
2023-02-28T22:14:11.393Z,100685.88
2023-02-28T22:16:50.705Z,100690.56
2023-02-28T22:19:21.262Z,100688.34
2023-02-28T22:21:49.418Z,100682.69
2023-02-28T22:24:16.274Z,100682.97
2023-02-28T22:26:43.567Z,100685.28
2023-02-28T22:29:10.339Z,100683.19
2023-02-28T22:31:37.614Z,100682.06
2023-02-28T22:34:16.604Z,100679.34
2023-02-28T22:36:45.327Z,100681.75
2023-02-28T22:39:12.725Z,100675.84
2023-02-28T22:41:40.172Z,100687.72
2023-02-28T22:44:07.092Z,100672.22
2023-02-28T22:46:36.047Z,100680.00
2023-02-28T22:49:05.238Z,100674.66
2023-02-28T22:51:32.947Z,100677.78
2023-02-28T22:54:01.194Z,100675.00
2023-02-28T22:56:30.596Z,100680.91
2023-02-28T22:59:00.928Z,100677.53
2023-02-28T23:01:30.886Z,100676.41
2023-02-28T23:03:58.542Z,100668.31
2023-02-28T23:06:30.682Z,100676.16
2023-02-28T23:09:03.736Z,100667.88
2023-02-28T23:11:34.296Z,100673.31
2023-02-28T23:14:01.958Z,100679.59
2023-02-28T23:16:33.135Z,100683.38
2023-02-28T23:19:03.764Z,100688.34
2023-02-28T23:21:31.445Z,100679.88
2023-02-28T23:24:03.107Z,100673.44
2023-02-28T23:26:31.890Z,100683.00
2023-02-28T23:28:59.238Z,100675.00
2023-02-28T23:31:26.201Z,100677.94
2023-02-28T23:33:53.525Z,100678.88
2023-02-28T23:36:20.380Z,100675.91
2023-02-28T23:38:50.695Z,100681.09
2023-02-28T23:41:21.511Z,100687.19
2023-02-28T23:43:48.580Z,100681.41
2023-02-28T23:46:16.593Z,100686.22
2023-02-28T23:48:44.042Z,100685.53
2023-02-28T23:51:14.988Z,100678.63
2023-02-28T23:53:44.260Z,100686.03
2023-02-28T23:56:15.552Z,100680.59
2023-02-28T23:58:45.956Z,100678.31
